createdAt,value
2019-04-05T19:28:17.183Z,27.87
2019-04-05T19:48:31.441Z,30.77
2019-04-05T19:50:46.216Z,30.85
2019-04-05T19:53:14.596Z,29.92
2019-04-05T19:55:42.938Z,32.67
2019-04-05T19:58:11.288Z,32.65
2019-04-05T20:00:39.631Z,31.42
2019-04-05T20:03:07.972Z,32.93
2019-04-05T20:05:36.333Z,33.28
2019-04-05T20:08:04.678Z,33.70
2019-04-05T20:10:33.024Z,34.58
2019-04-05T20:13:01.668Z,33.70
2019-04-05T20:15:30.023Z,33.85
2019-04-05T20:17:58.328Z,33.30
2019-04-05T20:20:26.679Z,34.13
2019-04-05T20:22:55.077Z,34.00
2019-04-05T20:25:23.391Z,35.58
2019-04-05T20:27:51.735Z,35.05
2019-04-05T20:30:20.070Z,37.05
2019-04-05T20:32:48.429Z,36.05
2019-04-05T20:35:16.771Z,37.35
2019-04-05T20:37:45.137Z,38.60
2019-04-05T20:40:13.436Z,36.55
2019-04-05T20:42:41.763Z,38.35
2019-04-05T20:45:10.062Z,33.60
2019-04-05T20:47:38.377Z,28.87
2019-04-05T20:50:07.140Z,40.13
2019-04-05T20:52:35.439Z,39.20
2019-04-05T20:55:05.787Z,42.05
2019-04-05T20:57:34.129Z,39.98
2019-04-05T21:00:02.447Z,41.53
2019-04-05T21:02:30.777Z,40.92
2019-04-05T21:04:59.435Z,43.80
2019-04-05T21:07:27.784Z,43.25
2019-04-05T21:09:56.094Z,43.98
2019-04-05T21:12:24.441Z,44.50
2019-04-05T21:14:52.766Z,41.13
2019-04-05T21:17:21.064Z,44.13
2019-04-05T21:19:49.449Z,43.68
2019-04-05T21:22:17.777Z,44.42
2019-04-05T21:24:46.102Z,44.67
2019-04-05T21:27:14.488Z,42.93
2019-04-05T21:29:42.858Z,44.13
2019-04-05T21:32:11.239Z,41.90
2019-04-05T21:34:39.645Z,41.13
2019-04-05T21:37:08.339Z,44.23
2019-04-05T21:39:36.717Z,43.68
2019-04-05T21:42:05.163Z,42.70
2019-04-05T21:44:33.623Z,43.55
2019-04-05T21:47:02.038Z,42.60
2019-04-05T21:49:30.770Z,44.13
2019-04-05T21:51:59.229Z,43.20
2019-04-05T21:54:27.695Z,44.05
2019-04-05T21:56:56.144Z,41.17
2019-04-05T21:59:24.577Z,43.35
2019-04-05T22:01:53.142Z,43.80
2019-04-05T22:04:21.686Z,43.15
2019-04-05T22:06:50.106Z,42.50
2019-04-05T22:09:18.546Z,41.58
2019-04-05T22:11:46.995Z,43.30
2019-04-05T22:14:15.451Z,42.43
2019-04-05T22:16:43.899Z,43.17
2019-04-05T22:19:14.495Z,41.88
2019-04-05T22:21:42.913Z,41.42
2019-04-05T22:24:11.672Z,42.23
2019-04-05T22:26:40.643Z,42.43
2019-04-05T22:29:09.042Z,40.95
2019-04-05T22:35:05.470Z,41.60
2019-04-05T22:37:34.049Z,42.00
2019-04-05T22:40:02.564Z,42.95
2019-04-05T22:42:30.996Z,41.45
2019-04-05T22:44:59.777Z,41.92
2019-04-05T22:47:28.213Z,41.35
2019-04-05T22:49:56.627Z,41.30
2019-04-05T22:52:25.572Z,40.45
2019-04-05T22:54:54.380Z,40.95
2019-04-05T22:57:22.805Z,40.25
2019-04-05T22:59:51.195Z,40.05
2019-04-05T23:02:19.586Z,41.02
2019-04-05T23:04:48.119Z,39.75
2019-04-05T23:07:16.525Z,39.65
2019-04-05T23:09:44.896Z,39.60
2019-04-05T23:12:13.304Z,40.03
2019-04-05T23:14:41.694Z,41.40
2019-04-05T23:17:10.444Z,40.98
2019-04-05T23:19:38.887Z,40.55
2019-04-05T23:22:07.275Z,40.28
2019-04-05T23:24:35.653Z,40.43
2019-04-05T23:27:04.055Z,38.95
2019-04-05T23:29:32.429Z,40.27
2019-04-05T23:32:00.818Z,39.83
2019-04-05T23:34:29.615Z,41.83
2019-04-05T23:36:58.047Z,42.98
2019-04-05T23:39:26.505Z,39.98
2019-04-05T23:41:54.925Z,41.80
2019-04-05T23:44:23.727Z,41.08
2019-04-05T23:46:52.729Z,42.33
2019-04-05T23:49:21.426Z,41.20
2019-04-05T23:51:49.812Z,41.88
2019-04-05T23:54:18.200Z,41.95
2019-04-05T23:56:46.677Z,42.58
2019-04-05T23:59:15.081Z,42.83
